createdAt,value
2023-01-10T00:01:36.620Z,99.96
2023-01-10T00:04:02.996Z,99.73
2023-01-10T00:06:29.343Z,99.79
2023-01-10T00:08:55.760Z,99.88
2023-01-10T00:11:22.155Z,99.72
2023-01-10T00:13:48.526Z,99.66
2023-01-10T00:16:14.896Z,99.91
2023-01-10T00:18:41.186Z,99.92
2023-01-10T00:21:07.584Z,100.00
2023-01-10T00:23:33.882Z,99.97
2023-01-10T00:26:00.248Z,99.93
2023-01-10T00:28:26.633Z,100.00
2023-01-10T00:30:52.997Z,100.00
2023-01-10T00:33:19.324Z,100.00
2023-01-10T00:35:45.703Z,100.00
2023-01-10T00:38:12.025Z,100.00
2023-01-10T00:40:38.344Z,100.00
2023-01-10T00:43:04.736Z,100.00
2023-01-10T00:45:31.122Z,99.99
2023-01-10T00:47:57.445Z,100.00
2023-01-10T00:50:23.777Z,99.99
2023-01-10T00:52:50.113Z,99.95
2023-01-10T00:55:16.426Z,99.85
2023-01-10T00:57:42.775Z,99.73
2023-01-10T01:00:09.130Z,99.69
2023-01-10T01:02:35.511Z,99.67
2023-01-10T01:05:01.836Z,99.74
2023-01-10T01:07:28.164Z,99.55
2023-01-10T01:09:54.491Z,99.77
2023-01-10T01:12:20.867Z,99.96
2023-01-10T01:14:47.186Z,100.00
2023-01-10T01:17:13.579Z,100.00
2023-01-10T01:19:39.889Z,100.00
2023-01-10T01:22:06.263Z,99.86
2023-01-10T01:24:32.581Z,99.77
2023-01-10T01:26:58.966Z,99.99
2023-01-10T01:29:30.018Z,99.92
2023-01-10T01:31:51.668Z,99.70
2023-01-10T01:34:18.026Z,99.50
2023-01-10T01:36:44.409Z,99.50
2023-01-10T01:39:10.727Z,99.38
2023-01-10T01:41:37.146Z,99.26
2023-01-10T01:44:03.461Z,99.09
2023-01-10T01:46:29.833Z,98.89
2023-01-10T01:48:56.158Z,99.01
2023-01-10T01:51:22.500Z,99.00
2023-01-10T01:53:48.818Z,98.81
2023-01-10T01:56:15.206Z,98.58
2023-01-10T01:58:41.520Z,98.51
2023-01-10T02:01:07.982Z,98.34
2023-01-10T02:03:34.191Z,98.22
2023-01-10T02:06:00.539Z,98.13
2023-01-10T02:08:26.855Z,98.11
2023-01-10T02:10:53.243Z,97.92
2023-01-10T02:13:19.556Z,97.93
2023-01-10T02:15:45.928Z,97.65
2023-01-10T02:18:12.222Z,97.44
2023-01-10T02:20:38.607Z,97.18
2023-01-10T02:23:04.938Z,97.13
2023-01-10T02:25:31.304Z,97.49
2023-01-10T02:27:57.677Z,97.83
2023-01-10T02:30:24.003Z,98.10
2023-01-10T02:33:00.594Z,98.17
2023-01-10T02:35:16.724Z,98.01
2023-01-10T02:37:43.032Z,98.10
2023-01-10T02:40:09.391Z,98.08
2023-01-10T02:42:35.756Z,98.26
2023-01-10T02:45:02.165Z,98.28
2023-01-10T02:47:28.552Z,98.48
2023-01-10T02:49:54.931Z,98.32
2023-01-10T02:52:21.243Z,98.06
2023-01-10T02:54:47.627Z,97.97
2023-01-10T02:57:14.000Z,97.75
2023-01-10T02:59:40.315Z,97.76
2023-01-10T03:02:06.695Z,97.72
2023-01-10T03:04:33.089Z,97.63
2023-01-10T03:06:59.464Z,97.38
2023-01-10T03:09:25.799Z,97.18
2023-01-10T03:11:52.155Z,97.04
2023-01-10T03:14:18.553Z,96.76
2023-01-10T03:16:44.884Z,96.46
2023-01-10T03:19:11.230Z,96.57
2023-01-10T03:21:37.611Z,96.66
2023-01-10T03:24:03.979Z,96.61
2023-01-10T03:26:30.326Z,96.54
2023-01-10T03:28:56.665Z,96.43
2023-01-10T03:31:23.095Z,96.06
2023-01-10T03:33:49.378Z,95.68
2023-01-10T03:36:15.686Z,95.48
2023-01-10T03:38:42.091Z,95.37
2023-01-10T03:41:08.468Z,95.28
2023-01-10T03:43:34.870Z,95.11
2023-01-10T03:46:01.198Z,95.02
2023-01-10T03:48:27.539Z,94.93
2023-01-10T03:50:53.856Z,95.01
2023-01-10T03:53:20.247Z,95.06
2023-01-10T03:55:46.564Z,94.79
2023-01-10T03:58:12.958Z,94.48
2023-01-10T04:00:39.314Z,94.61
2023-01-10T04:03:05.649Z,94.71
2023-01-10T04:05:32.009Z,95.02
2023-01-10T04:07:58.378Z,95.10
2023-01-10T04:10:25.292Z,95.25
2023-01-10T04:12:51.065Z,95.65
2023-01-10T04:15:17.420Z,96.05
2023-01-10T04:17:43.761Z,96.20
2023-01-10T04:20:10.116Z,96.27
2023-01-10T04:22:36.500Z,96.27
2023-01-10T04:25:02.846Z,96.45
2023-01-10T04:27:29.186Z,96.87
2023-01-10T04:29:55.550Z,96.62
2023-01-10T04:32:21.942Z,96.33
2023-01-10T04:34:48.278Z,95.88
2023-01-10T04:37:14.627Z,95.62
2023-01-10T04:39:40.985Z,95.28
2023-01-10T04:42:07.357Z,95.22
2023-01-10T04:44:33.688Z,94.88
2023-01-10T04:47:00.101Z,94.74
2023-01-10T04:49:26.459Z,94.39
2023-01-10T04:51:52.789Z,94.13
2023-01-10T04:54:19.106Z,94.12
2023-01-10T04:56:45.447Z,93.95
2023-01-10T04:59:11.762Z,93.96
2023-01-10T05:01:38.171Z,94.06
2023-01-10T05:04:04.553Z,94.18
2023-01-10T05:06:30.868Z,94.30
2023-01-10T05:08:57.239Z,94.52
2023-01-10T05:11:23.614Z,94.81
2023-01-10T05:13:49.984Z,95.02
2023-01-10T05:16:16.407Z,94.97
2023-01-10T05:18:42.736Z,94.91
2023-01-10T05:21:09.067Z,94.89
2023-01-10T05:23:35.432Z,94.77
2023-01-10T05:26:01.785Z,94.81
2023-01-10T05:28:28.148Z,94.44
2023-01-10T05:30:54.496Z,93.65
2023-01-10T05:33:20.822Z,93.44
2023-01-10T05:35:47.239Z,93.45
2023-01-10T05:38:13.543Z,93.91
2023-01-10T05:40:39.885Z,94.10
2023-01-10T05:43:06.201Z,94.31
2023-01-10T05:45:32.693Z,94.39
2023-01-10T05:47:58.920Z,94.55
2023-01-10T05:50:25.247Z,94.23
2023-01-10T05:52:51.578Z,94.33
2023-01-10T05:55:17.955Z,93.98
2023-01-10T05:57:44.309Z,93.82
2023-01-10T06:00:10.662Z,93.75
2023-01-10T06:02:37.140Z,93.62
2023-01-10T06:05:03.393Z,93.58
2023-01-10T06:07:29.703Z,93.22
2023-01-10T06:09:56.095Z,93.03
2023-01-10T06:12:22.455Z,92.92
2023-01-10T06:14:48.784Z,92.79
2023-01-10T06:17:15.154Z,92.47
2023-01-10T06:19:41.530Z,92.38
2023-01-10T06:22:07.857Z,92.06
2023-01-10T06:24:34.412Z,91.76
2023-01-10T06:27:00.928Z,91.68
2023-01-10T06:29:27.330Z,91.30
2023-01-10T06:31:53.692Z,91.21
2023-01-10T06:34:20.091Z,91.61
2023-01-10T06:36:46.485Z,91.79
2023-01-10T06:39:12.794Z,91.68
2023-01-10T06:41:39.171Z,91.49
2023-01-10T06:44:05.496Z,91.29
2023-01-10T06:46:31.832Z,91.44
2023-01-10T06:48:58.196Z,91.53
2023-01-10T06:51:24.543Z,91.60
2023-01-10T06:53:50.912Z,91.63
2023-01-10T06:56:17.248Z,91.60
2023-01-10T06:58:43.616Z,91.85
2023-01-10T07:01:10.129Z,92.61
2023-01-10T07:03:36.389Z,93.37
2023-01-10T07:06:02.691Z,94.07
2023-01-10T07:08:29.094Z,94.60
2023-01-10T07:10:55.443Z,95.37
2023-01-10T07:13:21.762Z,96.06
2023-01-10T07:15:48.131Z,96.93
2023-01-10T07:18:14.495Z,98.09
2023-01-10T07:20:40.842Z,99.23
2023-01-10T07:23:07.247Z,99.72
2023-01-10T07:25:33.628Z,100.00
2023-01-10T07:27:59.993Z,100.00
2023-01-10T07:30:26.495Z,100.00
2023-01-10T07:32:52.868Z,100.00
2023-01-10T07:35:19.634Z,100.00
2023-01-10T07:37:45.977Z,100.00
2023-01-10T07:40:12.355Z,100.00
2023-01-10T07:42:38.728Z,100.00
2023-01-10T07:45:05.074Z,100.00
2023-01-10T07:47:31.399Z,100.00
2023-01-10T07:49:57.764Z,100.00
2023-01-10T07:52:24.088Z,100.00
2023-01-10T07:54:50.480Z,100.00
2023-01-10T07:57:16.801Z,100.00
2023-01-10T07:59:43.206Z,100.00
2023-01-10T08:02:09.650Z,100.00
2023-01-10T08:04:35.865Z,100.00
2023-01-10T08:07:02.195Z,100.00
2023-01-10T08:09:28.576Z,100.00
2023-01-10T08:11:54.890Z,100.00
2023-01-10T08:14:21.347Z,100.00
2023-01-10T08:16:47.639Z,100.00
2023-01-10T08:19:14.013Z,100.00
2023-01-10T08:21:40.394Z,100.00
2023-01-10T08:24:06.772Z,100.00
2023-01-10T08:26:33.198Z,100.00
2023-01-10T08:28:59.539Z,100.00
2023-01-10T08:31:25.993Z,100.00
2023-01-10T08:33:52.245Z,100.00
2023-01-10T08:36:18.582Z,100.00
2023-01-10T08:38:45.147Z,100.00
2023-01-10T08:41:11.483Z,100.00
2023-01-10T08:43:37.863Z,100.00
2023-01-10T08:46:04.235Z,100.00
2023-01-10T08:48:30.669Z,100.00
2023-01-10T08:50:57.025Z,100.00
2023-01-10T08:53:23.444Z,100.00
2023-01-10T08:55:49.806Z,100.00
2023-01-10T08:58:16.194Z,100.00
2023-01-10T09:00:42.557Z,100.00
2023-01-10T09:03:09.029Z,100.00
2023-01-10T09:05:35.292Z,100.00
2023-01-10T09:08:01.692Z,100.00
2023-01-10T09:10:28.030Z,100.00
2023-01-10T09:12:54.549Z,100.00
2023-01-10T09:15:21.115Z,100.00
2023-01-10T09:17:47.464Z,100.00
2023-01-10T09:20:13.824Z,100.00
2023-01-10T09:22:40.220Z,100.00
2023-01-10T09:25:06.568Z,100.00
2023-01-10T09:27:32.951Z,100.00
2023-01-10T09:29:59.337Z,100.00
2023-01-10T09:32:25.695Z,100.00
2023-01-10T09:34:52.053Z,100.00
2023-01-10T09:37:18.440Z,100.00
2023-01-10T09:39:44.760Z,100.00
2023-01-10T09:42:11.188Z,100.00
2023-01-10T09:44:37.513Z,100.00
2023-01-10T09:47:08.443Z,100.00
2023-01-10T09:49:30.218Z,100.00
2023-01-10T09:51:58.923Z,100.00
2023-01-10T09:54:23.069Z,100.00
2023-01-10T09:56:49.421Z,100.00
2023-01-10T09:59:15.784Z,100.00
2023-01-10T10:01:42.131Z,100.00
2023-01-10T10:04:08.530Z,100.00
2023-01-10T10:06:34.842Z,100.00
2023-01-10T10:09:01.800Z,100.00
2023-01-10T10:11:27.574Z,100.00
2023-01-10T10:13:53.907Z,100.00
2023-01-10T10:16:20.339Z,100.00
2023-01-10T10:18:46.647Z,100.00
2023-01-10T10:21:12.976Z,100.00
2023-01-10T10:23:39.327Z,100.00
2023-01-10T10:26:05.679Z,100.00
2023-01-10T10:28:32.048Z,100.00
2023-01-10T10:30:58.381Z,100.00
2023-01-10T10:33:24.704Z,100.00
2023-01-10T10:35:51.069Z,100.00
2023-01-10T10:38:17.434Z,100.00
2023-01-10T10:40:43.820Z,100.00
2023-01-10T10:43:10.210Z,100.00
2023-01-10T10:45:36.701Z,100.00
2023-01-10T10:48:02.951Z,100.00
2023-01-10T10:50:29.338Z,100.00
2023-01-10T10:52:55.653Z,100.00
2023-01-10T10:55:22.041Z,100.00
2023-01-10T10:57:59.883Z,100.00
2023-01-10T11:00:14.774Z,100.00
2023-01-10T11:02:41.130Z,100.00
2023-01-10T11:05:07.575Z,100.00
2023-01-10T11:07:33.860Z,100.00
2023-01-10T11:10:00.200Z,100.00
2023-01-10T11:12:26.535Z,100.00
2023-01-10T11:14:52.925Z,100.00
2023-01-10T11:17:19.245Z,100.00
2023-01-10T11:19:45.594Z,100.00
2023-01-10T11:22:11.910Z,100.00
2023-01-10T11:24:38.264Z,100.00
2023-01-10T11:27:04.592Z,100.00
2023-01-10T11:29:30.979Z,100.00
2023-01-10T11:31:57.401Z,100.00
2023-01-10T11:34:23.692Z,100.00
2023-01-10T11:36:50.020Z,100.00
2023-01-10T11:39:16.411Z,100.00
2023-01-10T11:41:42.744Z,100.00
2023-01-10T11:44:09.111Z,100.00
2023-01-10T11:46:35.538Z,100.00
2023-01-10T11:49:07.283Z,100.00
2023-01-10T11:51:28.206Z,100.00
2023-01-10T11:53:54.602Z,100.00
2023-01-10T11:56:20.916Z,100.00
2023-01-10T11:58:47.293Z,100.00
2023-01-10T12:01:13.655Z,100.00
2023-01-10T12:03:39.999Z,100.00
2023-01-10T12:06:06.319Z,100.00
2023-01-10T12:08:32.728Z,100.00
2023-01-10T12:10:59.083Z,100.00
2023-01-10T12:13:25.461Z,100.00
2023-01-10T12:15:51.784Z,100.00
2023-01-10T12:18:18.182Z,100.00
2023-01-10T12:20:44.524Z,100.00
2023-01-10T12:23:10.939Z,100.00
2023-01-10T12:25:37.241Z,100.00
2023-01-10T12:28:03.683Z,100.00
2023-01-10T12:30:30.101Z,100.00
2023-01-10T12:32:56.359Z,100.00
2023-01-10T12:35:22.710Z,100.00
2023-01-10T12:37:49.052Z,100.00
2023-01-10T12:40:15.386Z,100.00
2023-01-10T12:42:41.728Z,100.00
2023-01-10T12:45:08.062Z,100.00
2023-01-10T12:47:34.478Z,100.00
2023-01-10T12:50:00.772Z,100.00
2023-01-10T12:52:27.120Z,100.00
2023-01-10T12:54:53.463Z,100.00
2023-01-10T12:57:19.801Z,100.00
2023-01-10T12:59:46.127Z,100.00
2023-01-10T13:02:12.581Z,100.00
2023-01-10T13:04:38.801Z,100.00
2023-01-10T13:07:05.173Z,100.00
2023-01-10T13:09:31.490Z,100.00
2023-01-10T13:11:57.882Z,100.00
2023-01-10T13:14:24.256Z,100.00
2023-01-10T13:16:50.645Z,100.00
2023-01-10T13:19:17.043Z,100.00
2023-01-10T13:21:43.422Z,100.00
2023-01-10T13:24:09.787Z,100.00
2023-01-10T13:26:36.125Z,100.00
2023-01-10T13:29:02.498Z,100.00
2023-01-10T13:31:28.922Z,100.00
2023-01-10T13:33:55.272Z,100.00
2023-01-10T13:36:21.656Z,100.00
2023-01-10T13:38:47.990Z,100.00
2023-01-10T13:41:14.364Z,100.00
2023-01-10T13:43:40.682Z,100.00
2023-01-10T13:46:07.086Z,100.00
2023-01-10T13:48:33.390Z,100.00
2023-01-10T13:50:59.793Z,100.00
2023-01-10T13:53:26.119Z,100.00
2023-01-10T13:55:52.509Z,100.00
2023-01-10T13:58:18.858Z,100.00
2023-01-10T14:00:45.239Z,100.00
2023-01-10T14:03:11.594Z,100.00
2023-01-10T14:05:37.980Z,100.00
2023-01-10T14:08:04.298Z,100.00
2023-01-10T14:10:30.698Z,100.00
2023-01-10T14:12:57.044Z,100.00
2023-01-10T14:15:25.630Z,100.00
2023-01-10T14:17:51.943Z,100.00
2023-01-10T14:20:18.292Z,100.00
2023-01-10T14:22:44.617Z,100.00
2023-01-10T14:25:11.037Z,100.00
2023-01-10T14:27:37.361Z,100.00
2023-01-10T14:30:03.750Z,100.00
2023-01-10T14:32:30.055Z,100.00
2023-01-10T14:34:56.399Z,100.00
2023-01-10T14:37:22.767Z,100.00
2023-01-10T14:39:49.102Z,100.00
2023-01-10T14:42:15.460Z,100.00
2023-01-10T14:44:41.798Z,100.00
2023-01-10T14:47:08.180Z,100.00
2023-01-10T14:49:34.513Z,100.00
2023-01-10T14:52:00.873Z,100.00
2023-01-10T14:54:27.204Z,100.00
2023-01-10T14:56:53.563Z,100.00
2023-01-10T14:59:19.947Z,100.00
2023-01-10T15:01:46.374Z,100.00
2023-01-10T15:04:12.664Z,100.00
2023-01-10T15:06:38.934Z,100.00
2023-01-10T15:09:05.268Z,100.00
2023-01-10T15:11:31.633Z,100.00
2023-01-10T15:13:59.898Z,100.00
2023-01-10T15:16:24.331Z,100.00
2023-01-10T15:18:50.729Z,100.00
2023-01-10T15:21:18.344Z,100.00
2023-01-10T15:23:43.487Z,100.00
2023-01-10T15:26:09.854Z,100.00
2023-01-10T15:28:36.194Z,100.00
2023-01-10T15:31:02.617Z,100.00
2023-01-10T15:33:28.940Z,100.00
2023-01-10T15:35:55.298Z,100.00
2023-01-10T15:38:21.671Z,100.00
2023-01-10T15:40:47.985Z,100.00
2023-01-10T15:43:14.328Z,100.00
2023-01-10T15:45:40.653Z,100.00
2023-01-10T15:48:07.033Z,100.00
2023-01-10T15:50:33.352Z,100.00
2023-01-10T15:52:59.706Z,100.00
2023-01-10T15:55:26.799Z,100.00
2023-01-10T15:57:52.439Z,100.00
2023-01-10T16:00:18.729Z,100.00
2023-01-10T16:02:45.233Z,100.00
2023-01-10T16:05:11.422Z,100.00
2023-01-10T16:07:37.741Z,100.00
2023-01-10T16:10:04.083Z,100.00
2023-01-10T16:12:30.461Z,100.00
2023-01-10T16:14:56.829Z,100.00
2023-01-10T16:17:23.198Z,100.00
2023-01-10T16:19:49.560Z,100.00
2023-01-10T16:22:15.929Z,100.00
2023-01-10T16:24:42.242Z,100.00
2023-01-10T16:27:08.587Z,100.00
2023-01-10T16:29:34.950Z,100.00
2023-01-10T16:32:01.327Z,100.00
2023-01-10T16:34:27.686Z,100.00
2023-01-10T16:36:54.045Z,100.00
2023-01-10T16:39:20.369Z,100.00
2023-01-10T16:41:46.749Z,100.00
2023-01-10T16:44:13.085Z,100.00
2023-01-10T16:46:39.437Z,100.00
2023-01-10T16:49:05.759Z,100.00
2023-01-10T16:51:32.154Z,100.00
2023-01-10T16:53:58.530Z,100.00
2023-01-10T16:56:24.869Z,100.00
2023-01-10T16:58:51.229Z,100.00
2023-01-10T17:01:17.676Z,100.00
2023-01-10T17:03:43.948Z,100.00
2023-01-10T17:06:10.269Z,100.00
2023-01-10T17:08:36.627Z,100.00
2023-01-10T17:11:05.020Z,100.00
2023-01-10T17:13:29.325Z,100.00
2023-01-10T17:15:55.675Z,100.00
2023-01-10T17:18:22.059Z,100.00
2023-01-10T17:20:48.429Z,100.00
2023-01-10T17:23:14.760Z,100.00
2023-01-10T17:25:41.092Z,100.00
2023-01-10T17:28:07.441Z,100.00
2023-01-10T17:30:33.765Z,100.00
2023-01-10T17:33:00.128Z,100.00
2023-01-10T17:35:26.493Z,100.00
2023-01-10T17:37:52.876Z,100.00
2023-01-10T17:40:19.226Z,100.00
2023-01-10T17:42:45.593Z,100.00
2023-01-10T17:45:11.994Z,100.00
2023-01-10T17:47:38.299Z,100.00
2023-01-10T17:50:04.652Z,100.00
2023-01-10T17:52:30.990Z,100.00
2023-01-10T17:54:59.461Z,100.00
2023-01-10T17:57:23.697Z,100.00
2023-01-10T17:59:50.007Z,100.00
2023-01-10T18:02:16.617Z,100.00
2023-01-10T18:04:42.695Z,100.00
2023-01-10T18:07:09.099Z,100.00
2023-01-10T18:09:35.433Z,100.00
2023-01-10T18:12:01.779Z,100.00
2023-01-10T18:14:28.109Z,100.00
2023-01-10T18:16:54.457Z,100.00
2023-01-10T18:19:20.818Z,100.00
2023-01-10T18:21:47.207Z,100.00
2023-01-10T18:24:13.562Z,100.00
2023-01-10T18:26:39.942Z,100.00
2023-01-10T18:29:06.296Z,100.00
2023-01-10T18:31:32.674Z,100.00
2023-01-10T18:33:59.002Z,100.00
2023-01-10T18:36:25.415Z,100.00
2023-01-10T18:38:51.808Z,100.00
2023-01-10T18:41:18.114Z,100.00
2023-01-10T18:43:44.478Z,100.00
2023-01-10T18:46:10.866Z,100.00
2023-01-10T18:48:37.149Z,100.00
2023-01-10T18:51:03.533Z,100.00
2023-01-10T18:53:29.866Z,100.00
2023-01-10T18:55:56.256Z,100.00
2023-01-10T18:58:22.605Z,100.00
2023-01-10T19:00:48.994Z,100.00
2023-01-10T19:03:15.351Z,100.00
2023-01-10T19:05:41.743Z,100.00
2023-01-10T19:08:08.037Z,100.00
2023-01-10T19:10:54.988Z,100.00
2023-01-10T19:13:00.749Z,100.00
2023-01-10T19:15:27.158Z,100.00
2023-01-10T19:17:53.522Z,100.00
2023-01-10T19:20:19.861Z,100.00
2023-01-10T19:22:47.546Z,100.00
2023-01-10T19:25:12.555Z,100.00
2023-01-10T19:27:38.889Z,100.00
2023-01-10T19:30:05.226Z,100.00
2023-01-10T19:32:31.589Z,100.00
2023-01-10T19:34:57.987Z,100.00
2023-01-10T19:37:24.298Z,100.00
2023-01-10T19:39:50.660Z,100.00
2023-01-10T19:42:16.969Z,100.00
2023-01-10T19:44:43.371Z,100.00
2023-01-10T19:47:09.725Z,100.00
2023-01-10T19:49:36.092Z,100.00
2023-01-10T19:52:02.429Z,100.00
2023-01-10T19:54:28.821Z,100.00
2023-01-10T19:56:55.154Z,100.00
2023-01-10T19:59:21.482Z,100.00
2023-01-10T20:01:47.953Z,100.00
2023-01-10T20:04:14.241Z,100.00
2023-01-10T20:06:40.641Z,100.00
2023-01-10T20:09:06.979Z,100.00
2023-01-10T20:11:33.345Z,100.00
2023-01-10T20:13:59.787Z,100.00
2023-01-10T20:16:26.151Z,100.00
2023-01-10T20:18:52.537Z,100.00
2023-01-10T20:21:18.911Z,100.00
2023-01-10T20:23:45.290Z,100.00
2023-01-10T20:26:11.595Z,100.00
2023-01-10T20:28:38.005Z,100.00
2023-01-10T20:31:04.403Z,100.00
2023-01-10T20:33:31.997Z,100.00
2023-01-10T20:35:57.078Z,100.00
2023-01-10T20:38:23.453Z,100.00
2023-01-10T20:40:49.814Z,100.00
2023-01-10T20:43:16.220Z,100.00
2023-01-10T20:45:42.572Z,100.00
2023-01-10T20:48:08.903Z,100.00
2023-01-10T20:50:35.269Z,100.00
2023-01-10T20:53:01.679Z,100.00
2023-01-10T20:55:27.975Z,100.00
2023-01-10T20:57:54.364Z,100.00
2023-01-10T21:00:20.674Z,100.00
2023-01-10T21:02:47.089Z,100.00
2023-01-10T21:05:13.454Z,100.00
2023-01-10T21:07:39.802Z,100.00
2023-01-10T21:10:06.160Z,100.00
2023-01-10T21:12:32.503Z,100.00
2023-01-10T21:14:58.920Z,100.00
2023-01-10T21:17:25.288Z,100.00
2023-01-10T21:19:51.604Z,100.00
2023-01-10T21:22:17.999Z,100.00
2023-01-10T21:24:44.324Z,100.00
2023-01-10T21:27:10.673Z,100.00
2023-01-10T21:29:37.016Z,100.00
2023-01-10T21:32:03.363Z,100.00
2023-01-10T21:34:29.736Z,100.00
2023-01-10T21:36:56.105Z,100.00
2023-01-10T21:39:22.531Z,100.00
2023-01-10T21:41:48.871Z,100.00
2023-01-10T21:44:15.197Z,100.00
2023-01-10T21:46:41.650Z,100.00
2023-01-10T21:49:07.957Z,100.00
2023-01-10T21:51:34.380Z,100.00
2023-01-10T21:54:00.729Z,100.00
2023-01-10T21:56:27.137Z,100.00
2023-01-10T21:58:53.481Z,100.00
2023-01-10T22:01:19.920Z,100.00
2023-01-10T22:03:46.286Z,100.00
2023-01-10T22:06:12.641Z,100.00
2023-01-10T22:08:39.077Z,100.00
2023-01-10T22:11:05.399Z,100.00
2023-01-10T22:13:31.814Z,100.00
2023-01-10T22:15:58.233Z,100.00
2023-01-10T22:18:24.529Z,100.00
2023-01-10T22:20:50.948Z,100.00
2023-01-10T22:23:17.271Z,100.00
2023-01-10T22:25:43.685Z,100.00
2023-01-10T22:28:10.002Z,100.00
2023-01-10T22:30:36.386Z,100.00
2023-01-10T22:33:02.771Z,100.00
2023-01-10T22:35:29.147Z,100.00
2023-01-10T22:37:55.461Z,100.00
2023-01-10T22:40:21.851Z,100.00
2023-01-10T22:42:48.218Z,100.00
2023-01-10T22:45:14.557Z,100.00
2023-01-10T22:47:40.893Z,100.00
2023-01-10T22:50:07.242Z,100.00
2023-01-10T22:52:33.613Z,100.00
2023-01-10T22:54:59.991Z,100.00
2023-01-10T22:57:28.753Z,100.00
2023-01-10T22:59:52.753Z,100.00
2023-01-10T23:02:19.158Z,100.00
2023-01-10T23:04:45.443Z,100.00
2023-01-10T23:07:11.769Z,100.00
2023-01-10T23:09:38.106Z,100.00
2023-01-10T23:12:04.428Z,100.00
2023-01-10T23:14:30.830Z,100.00
2023-01-10T23:16:57.212Z,100.00
2023-01-10T23:19:23.588Z,100.00
2023-01-10T23:21:49.943Z,100.00
2023-01-10T23:24:16.387Z,100.00
2023-01-10T23:26:42.707Z,100.00
2023-01-10T23:29:09.064Z,100.00
2023-01-10T23:31:35.434Z,100.00
2023-01-10T23:34:01.821Z,100.00
2023-01-10T23:36:28.181Z,100.00
2023-01-10T23:38:54.556Z,100.00
2023-01-10T23:41:20.956Z,100.00
2023-01-10T23:43:47.243Z,100.00
2023-01-10T23:46:13.659Z,100.00
2023-01-10T23:48:39.971Z,100.00
2023-01-10T23:51:06.275Z,100.00
2023-01-10T23:53:32.615Z,100.00
2023-01-10T23:55:59.016Z,100.00
2023-01-10T23:58:25.399Z,100.00
